createdAt,value
2022-11-14T00:01:30.525Z,23.40
2022-11-14T00:03:58.633Z,23.17
2022-11-14T00:06:26.662Z,22.40
2022-11-14T00:08:56.054Z,20.92
2022-11-14T00:11:24.053Z,23.70
2022-11-14T00:13:52.076Z,21.63
2022-11-14T00:16:20.057Z,20.20
2022-11-14T00:18:48.092Z,22.10
2022-11-14T00:21:16.205Z,23.30
2022-11-14T00:23:44.239Z,22.63
2022-11-14T00:26:13.642Z,23.05
2022-11-14T00:28:41.632Z,20.55
2022-11-14T00:31:10.790Z,21.13
2022-11-14T00:33:39.467Z,22.40
2022-11-14T00:36:07.995Z,22.50
2022-11-14T00:38:36.001Z,23.25
2022-11-14T00:41:04.017Z,22.88
2022-11-14T00:43:33.491Z,21.05
2022-11-14T00:46:01.491Z,22.63
2022-11-14T00:48:29.725Z,19.98
2022-11-14T00:50:57.948Z,23.70
2022-11-14T00:53:25.949Z,23.30
2022-11-14T00:55:54.047Z,24.48
2022-11-14T00:58:22.028Z,26.75
2022-11-14T01:00:51.635Z,27.23
2022-11-14T01:03:19.825Z,24.65
2022-11-14T01:05:51.352Z,26.45
2022-11-14T01:08:20.938Z,25.52
2022-11-14T01:10:50.900Z,26.70
2022-11-14T01:13:19.946Z,26.02
2022-11-14T01:15:49.986Z,24.13
2022-11-14T01:18:21.422Z,26.63
2022-11-14T01:20:50.507Z,28.15
2022-11-14T01:23:18.781Z,27.23
2022-11-14T01:25:46.984Z,25.98
2022-11-14T01:28:17.993Z,25.83
2022-11-14T01:30:46.701Z,28.60
2022-11-14T01:33:14.734Z,26.85
2022-11-14T01:35:44.146Z,25.50
2022-11-14T01:38:14.873Z,26.80
2022-11-14T01:40:44.029Z,26.20
2022-11-14T01:43:36.352Z,25.05
2022-11-14T01:46:05.949Z,25.07
2022-11-14T01:48:41.243Z,26.10
2022-11-14T01:51:21.129Z,25.63
2022-11-14T01:53:52.189Z,26.17
2022-11-14T01:56:25.570Z,25.45
2022-11-14T01:59:01.816Z,25.77
2022-11-14T02:01:33.867Z,26.80
2022-11-14T02:04:06.455Z,25.30
2022-11-14T02:06:37.745Z,24.83
2022-11-14T02:09:07.764Z,25.95
2022-11-14T02:11:39.846Z,26.60
2022-11-14T02:14:08.569Z,27.48
2022-11-14T02:16:37.032Z,26.08
2022-11-14T02:19:06.578Z,25.13
2022-11-14T02:21:36.109Z,27.38
2022-11-14T02:24:04.123Z,27.63
2022-11-14T02:26:36.655Z,27.85
2022-11-14T02:31:32.775Z,24.35
2022-11-14T02:34:00.829Z,25.70
2022-11-14T02:36:28.949Z,26.33
2022-11-14T02:38:58.367Z,27.40
2022-11-14T02:41:26.464Z,27.42
2022-11-14T02:43:54.480Z,28.05
2022-11-14T02:46:22.516Z,27.15
2022-11-14T02:48:50.527Z,28.73
2022-11-14T02:51:18.525Z,30.20
2022-11-14T02:53:46.618Z,28.67
2022-11-14T02:56:16.062Z,29.02
2022-11-14T02:58:44.167Z,26.50
2022-11-14T03:01:20.998Z,27.88
2022-11-14T03:03:49.788Z,26.00
2022-11-14T03:06:17.904Z,28.30
2022-11-14T03:08:45.984Z,29.15
2022-11-14T03:11:15.454Z,28.35
2022-11-14T03:13:43.524Z,24.48
2022-11-14T03:16:13.476Z,25.70
2022-11-14T03:18:41.841Z,23.52
2022-11-14T03:21:11.941Z,23.73
2022-11-14T03:23:40.011Z,24.45
2022-11-14T03:26:10.591Z,22.33
2022-11-14T03:28:40.820Z,22.70
2022-11-14T03:31:10.398Z,23.10
2022-11-14T03:33:38.643Z,24.15
2022-11-14T03:36:07.942Z,24.40
2022-11-14T03:38:36.348Z,22.90
2022-11-14T03:41:04.446Z,22.35
2022-11-14T03:43:34.156Z,20.70
2022-11-14T03:46:04.525Z,21.38
2022-11-14T03:48:33.019Z,20.77
2022-11-14T03:51:01.177Z,20.58
2022-11-14T03:53:29.523Z,20.80
2022-11-14T03:55:57.548Z,23.38
2022-11-14T03:58:25.605Z,20.42
2022-11-14T04:00:55.940Z,21.88
2022-11-14T04:03:26.053Z,20.08
2022-11-14T04:05:54.116Z,20.98
2022-11-14T04:08:22.142Z,20.15
2022-11-14T04:10:50.708Z,20.88
2022-11-14T04:13:18.776Z,19.90
2022-11-14T04:15:46.742Z,20.60
2022-11-14T04:18:14.727Z,19.58
2022-11-14T04:20:44.109Z,21.73
2022-11-14T04:23:12.106Z,22.42
2022-11-14T04:25:40.115Z,21.33
2022-11-14T04:28:08.152Z,22.75
2022-11-14T04:30:37.522Z,21.92
2022-11-14T04:33:05.800Z,21.67
2022-11-14T04:35:33.800Z,22.88
2022-11-14T04:38:03.187Z,21.13
2022-11-14T04:40:31.314Z,22.15
2022-11-14T04:42:59.383Z,20.58
2022-11-14T04:45:27.501Z,22.80
2022-11-14T04:47:55.584Z,22.90
2022-11-14T04:50:23.746Z,21.23
2022-11-14T04:52:53.701Z,22.25
2022-11-14T04:55:23.140Z,20.52
2022-11-14T04:57:55.404Z,22.35
2022-11-14T05:00:23.747Z,23.23
2022-11-14T05:02:51.808Z,22.70
2022-11-14T05:05:19.855Z,24.10
2022-11-14T05:07:47.858Z,25.50
2022-11-14T05:10:15.871Z,28.13
2022-11-14T05:12:45.415Z,26.98
2022-11-14T05:15:13.487Z,29.00
2022-11-14T05:17:41.619Z,29.38
2022-11-14T05:20:10.594Z,30.38
2022-11-14T05:22:38.945Z,34.55
2022-11-14T05:25:08.143Z,31.80
2022-11-14T05:27:36.451Z,31.85
2022-11-14T05:30:06.634Z,32.08
2022-11-14T05:32:34.625Z,28.77
2022-11-14T05:35:02.907Z,29.23
2022-11-14T05:37:30.881Z,27.83
2022-11-14T05:39:58.960Z,26.45
2022-11-14T05:42:28.603Z,28.30
2022-11-14T05:44:56.719Z,27.27
2022-11-14T05:47:26.432Z,27.73
2022-11-14T05:49:54.521Z,29.27
2022-11-14T05:52:22.618Z,27.95
2022-11-14T05:54:50.611Z,27.20
2022-11-14T05:57:18.709Z,27.15
2022-11-14T05:59:46.662Z,30.10
2022-11-14T06:02:14.867Z,27.50
2022-11-14T06:04:44.378Z,28.40
2022-11-14T06:07:16.235Z,29.85
2022-11-14T06:09:46.898Z,29.33
2022-11-14T06:12:14.890Z,29.15
2022-11-14T06:14:42.846Z,31.05
2022-11-14T06:17:10.938Z,28.73
2022-11-14T06:19:39.016Z,29.02
2022-11-14T06:22:09.526Z,30.17
2022-11-14T06:24:39.130Z,28.02
2022-11-14T06:27:07.125Z,26.15
2022-11-14T06:29:35.758Z,27.17
2022-11-14T06:32:03.912Z,28.42
2022-11-14T06:34:31.859Z,28.75
2022-11-14T06:36:59.903Z,30.17
2022-11-14T06:39:29.280Z,28.42
2022-11-14T06:41:57.353Z,29.52
2022-11-14T06:44:30.640Z,28.98
2022-11-14T06:46:59.143Z,29.20
2022-11-14T06:49:28.008Z,29.20
2022-11-14T06:51:59.247Z,26.77
2022-11-14T06:54:27.458Z,27.73
2022-11-14T06:56:57.041Z,26.77
2022-11-14T06:59:25.003Z,28.73
2022-11-14T07:01:52.987Z,28.85
2022-11-14T07:04:20.995Z,28.10
2022-11-14T07:06:49.031Z,27.67
2022-11-14T07:09:17.556Z,27.08
2022-11-14T07:11:46.961Z,27.90
2022-11-14T07:14:16.432Z,28.63
2022-11-14T07:16:44.408Z,28.00
2022-11-14T07:19:12.695Z,29.67
2022-11-14T07:21:41.473Z,28.45
2022-11-14T07:24:09.590Z,30.73
2022-11-14T07:26:37.586Z,28.45
2022-11-14T07:29:05.705Z,30.92
2022-11-14T07:31:35.098Z,29.40
2022-11-14T07:34:03.063Z,32.03
2022-11-14T07:36:33.643Z,30.20
2022-11-14T07:39:01.631Z,29.15
2022-11-14T07:41:29.673Z,29.48
2022-11-14T07:43:57.721Z,32.75
2022-11-14T07:46:25.688Z,30.52
2022-11-14T07:48:56.118Z,29.58
2022-11-14T07:51:24.101Z,29.52
2022-11-14T07:53:53.324Z,31.20
2022-11-14T07:56:22.337Z,28.27
2022-11-14T07:58:50.338Z,24.83
2022-11-14T08:01:18.761Z,27.63
2022-11-14T08:03:46.962Z,26.90
2022-11-14T08:06:17.749Z,27.55
2022-11-14T08:08:45.766Z,25.35
2022-11-14T08:11:23.051Z,26.15
2022-11-14T08:14:01.934Z,23.00
2022-11-14T08:16:29.932Z,22.92
2022-11-14T08:18:57.944Z,21.73
2022-11-14T08:21:28.553Z,21.27
2022-11-14T08:23:56.623Z,21.92
2022-11-14T08:26:26.306Z,21.73
2022-11-14T08:28:55.999Z,22.00
2022-11-14T08:31:24.318Z,20.15
2022-11-14T08:33:53.307Z,21.63
2022-11-14T08:36:21.602Z,23.02
2022-11-14T08:38:51.765Z,23.73
2022-11-14T08:41:20.268Z,22.35
2022-11-14T08:43:48.255Z,23.17
2022-11-14T08:46:16.437Z,23.08
2022-11-14T08:48:44.425Z,22.13
2022-11-14T08:51:12.476Z,22.13
2022-11-14T08:53:40.572Z,23.27
2022-11-14T08:56:12.838Z,21.20
2022-11-14T08:58:40.847Z,23.92
2022-11-14T09:01:09.240Z,24.83
2022-11-14T09:03:37.507Z,25.40
2022-11-14T09:06:05.752Z,23.73
2022-11-14T09:08:33.923Z,26.42
2022-11-14T09:11:05.875Z,23.40
2022-11-14T09:13:37.263Z,23.77
2022-11-14T09:16:05.534Z,24.17
2022-11-14T09:18:33.755Z,23.42
2022-11-14T09:21:02.872Z,24.42
2022-11-14T09:23:31.444Z,23.67
2022-11-14T09:25:59.821Z,23.00
2022-11-14T09:28:27.835Z,24.23
2022-11-14T09:31:01.590Z,24.30
2022-11-14T09:33:30.766Z,23.50
2022-11-14T09:35:59.412Z,23.92
2022-11-14T09:38:28.253Z,25.65
2022-11-14T09:41:06.620Z,23.50
2022-11-14T09:44:03.195Z,25.88
2022-11-14T09:46:38.902Z,24.20
2022-11-14T09:49:15.115Z,25.30
2022-11-14T09:51:52.069Z,24.60
2022-11-14T09:54:24.223Z,24.33
2022-11-14T09:56:53.351Z,26.30
2022-11-14T09:59:21.476Z,25.67
2022-11-14T10:02:06.374Z,24.25
2022-11-14T10:04:51.104Z,25.75
2022-11-14T10:07:31.245Z,25.40
2022-11-14T10:10:09.246Z,24.42
2022-11-14T10:12:44.704Z,23.70
2022-11-14T10:15:23.649Z,25.80
2022-11-14T10:18:05.521Z,22.10
2022-11-14T10:20:40.249Z,24.42
2022-11-14T10:23:22.261Z,23.63
2022-11-14T10:25:56.775Z,24.30
2022-11-14T10:28:39.882Z,24.17
2022-11-14T10:31:21.171Z,23.88
2022-11-14T10:33:58.979Z,24.98
2022-11-14T10:36:42.211Z,25.27
2022-11-14T10:39:19.087Z,23.52
2022-11-14T10:41:58.077Z,25.65
2022-11-14T10:44:35.592Z,25.00
2022-11-14T10:47:07.761Z,25.52
2022-11-14T10:49:39.031Z,25.02
2022-11-14T10:52:13.840Z,24.63
2022-11-14T10:54:47.072Z,24.42
2022-11-14T10:57:18.552Z,25.13
2022-11-14T10:59:47.445Z,25.25
2022-11-14T11:02:15.689Z,24.75
2022-11-14T11:04:47.178Z,24.15
2022-11-14T11:07:40.086Z,23.77
2022-11-14T11:10:37.585Z,23.42
2022-11-14T11:13:05.682Z,24.38
2022-11-14T11:15:41.917Z,24.60
2022-11-14T11:18:27.989Z,25.63
2022-11-14T11:21:13.111Z,24.05
2022-11-14T11:23:50.814Z,24.90
2022-11-14T11:26:25.309Z,25.50
2022-11-14T11:29:09.014Z,24.75
2022-11-14T11:31:54.727Z,24.73
2022-11-14T11:34:26.488Z,24.10
2022-11-14T11:37:02.729Z,25.08
2022-11-14T11:39:33.381Z,25.42
2022-11-14T11:42:09.797Z,24.92
2022-11-14T11:44:45.799Z,23.13
2022-11-14T11:47:18.193Z,24.70
2022-11-14T11:49:53.425Z,23.08
2022-11-14T11:52:32.359Z,24.02
2022-11-14T11:55:05.025Z,23.13
2022-11-14T12:00:16.133Z,21.95
2022-11-14T12:02:49.997Z,24.40
2022-11-14T12:05:24.986Z,24.23
2022-11-14T12:08:01.518Z,24.10
2022-11-14T12:10:33.573Z,23.38
2022-11-14T12:13:25.943Z,24.23
2022-11-14T12:16:11.666Z,22.98
2022-11-14T12:18:57.265Z,23.42
2022-11-14T12:22:03.976Z,21.55
2022-11-14T12:25:19.917Z,21.83
2022-11-14T12:28:11.873Z,22.83
2022-11-14T12:30:42.756Z,22.48
2022-11-14T12:33:14.570Z,22.00
2022-11-14T12:35:51.481Z,21.00
2022-11-14T12:38:21.168Z,20.60
2022-11-14T12:40:55.400Z,19.52
2022-11-14T12:43:37.230Z,18.98
2022-11-14T12:46:11.651Z,17.27
2022-11-14T12:48:41.200Z,17.83
2022-11-14T12:51:42.348Z,17.73
2022-11-14T12:54:46.260Z,14.07
2022-11-14T12:57:38.494Z,13.93
2022-11-14T13:00:09.940Z,12.97
2022-11-14T13:03:19.882Z,15.82
2022-11-14T13:05:58.420Z,13.80
2022-11-14T13:09:13.976Z,13.48
2022-11-14T13:12:01.904Z,14.38
2022-11-14T13:14:48.899Z,15.60
2022-11-14T13:17:46.366Z,14.55
2022-11-14T13:20:50.310Z,13.80
2022-11-14T13:23:57.059Z,15.60
2022-11-14T13:26:48.593Z,13.73
2022-11-14T13:29:58.560Z,13.65
2022-11-14T13:32:56.045Z,13.13
2022-11-14T13:35:38.403Z,13.30
2022-11-14T13:38:48.332Z,12.60
2022-11-14T13:41:46.903Z,12.68
2022-11-14T13:44:39.270Z,11.85
2022-11-14T13:47:28.358Z,11.55
2022-11-14T13:50:05.353Z,11.55
2022-11-14T13:52:35.307Z,11.10
2022-11-14T13:55:04.683Z,10.02
2022-11-14T13:57:50.584Z,10.40
2022-11-14T14:00:21.197Z,11.23
2022-11-14T14:03:20.205Z,10.77
2022-11-14T14:06:18.451Z,11.35
2022-11-14T14:09:06.701Z,12.68
2022-11-14T14:11:46.157Z,11.05
2022-11-14T14:14:35.153Z,11.38
2022-11-14T14:17:08.875Z,12.63
2022-11-14T14:19:51.807Z,12.23
2022-11-14T14:24:59.380Z,13.23
2022-11-14T14:27:35.269Z,13.57
2022-11-14T14:30:09.762Z,14.48
2022-11-14T14:32:38.119Z,14.90
2022-11-14T14:35:32.579Z,14.30
2022-11-14T14:38:11.097Z,15.10
2022-11-14T14:40:41.877Z,14.98
2022-11-14T14:43:25.103Z,13.45
2022-11-14T14:45:54.603Z,14.82
2022-11-14T14:48:26.821Z,14.65
2022-11-14T14:50:56.788Z,13.48
2022-11-14T14:53:28.100Z,13.32
2022-11-14T14:55:58.302Z,15.80
2022-11-14T14:58:29.832Z,14.10
2022-11-14T15:01:01.072Z,14.82
2022-11-14T15:03:36.948Z,16.40
2022-11-14T15:06:07.798Z,15.35
2022-11-14T15:08:40.065Z,16.17
2022-11-14T15:11:09.000Z,16.10
2022-11-14T15:13:38.860Z,17.00
2022-11-14T15:16:09.382Z,18.33
2022-11-14T15:18:38.115Z,16.60
2022-11-14T15:21:12.076Z,15.90
2022-11-14T15:23:42.423Z,17.92
2022-11-14T15:26:16.861Z,18.35
2022-11-14T15:28:45.342Z,18.85
2022-11-14T15:31:22.056Z,18.00
2022-11-14T15:34:03.488Z,18.00
2022-11-14T15:36:31.685Z,17.30
2022-11-14T15:39:03.661Z,18.38
2022-11-14T15:41:32.614Z,18.40
2022-11-14T15:44:03.419Z,18.08
2022-11-14T15:46:41.264Z,17.17
2022-11-14T15:49:11.581Z,17.35
2022-11-14T15:51:43.541Z,18.60
2022-11-14T15:54:28.197Z,18.80
2022-11-14T15:56:58.010Z,16.95
2022-11-14T15:59:27.122Z,17.55
2022-11-14T16:01:59.775Z,19.73
2022-11-14T16:04:31.811Z,19.05
2022-11-14T16:07:00.440Z,18.88
2022-11-14T16:09:29.861Z,18.17
2022-11-14T16:11:57.893Z,18.45
2022-11-14T16:14:25.878Z,18.50
2022-11-14T16:16:53.902Z,21.15
2022-11-14T16:19:22.238Z,19.52
2022-11-14T16:21:50.387Z,21.23
2022-11-14T16:24:20.359Z,22.02
2022-11-14T16:26:50.901Z,21.55
2022-11-14T16:29:18.952Z,22.25
2022-11-14T16:31:47.376Z,24.30
2022-11-14T16:34:19.747Z,23.58
2022-11-14T16:36:48.799Z,25.40
2022-11-14T16:39:17.112Z,26.80
2022-11-14T16:41:45.175Z,21.77
2022-11-14T16:44:18.911Z,24.55
2022-11-14T16:46:47.896Z,23.45
2022-11-14T16:49:17.448Z,24.67
2022-11-14T16:51:48.205Z,26.00
2022-11-14T16:54:17.693Z,27.42
2022-11-14T16:56:45.811Z,25.00
2022-11-14T16:59:14.282Z,26.33
2022-11-14T17:01:44.408Z,26.92
2022-11-14T17:04:12.791Z,27.38
2022-11-14T17:06:41.452Z,27.02
2022-11-14T17:09:09.605Z,27.42
2022-11-14T17:11:37.689Z,26.55
2022-11-14T17:14:12.309Z,24.00
2022-11-14T17:16:49.448Z,23.83
2022-11-14T17:19:26.207Z,22.77
2022-11-14T17:21:54.278Z,24.55
2022-11-14T17:24:25.035Z,24.40
2022-11-14T17:26:56.772Z,25.25
2022-11-14T17:29:24.791Z,24.85
2022-11-14T17:31:52.984Z,27.55
2022-11-14T17:34:22.904Z,30.88
2022-11-14T17:36:51.876Z,31.67
2022-11-14T17:39:20.332Z,27.27
2022-11-14T17:41:48.491Z,29.63
2022-11-14T17:44:16.732Z,28.30
2022-11-14T17:46:45.324Z,26.85
2022-11-14T17:49:13.419Z,27.83
2022-11-14T17:51:43.599Z,26.77
2022-11-14T17:54:11.956Z,25.23
2022-11-14T17:56:46.484Z,27.42
2022-11-14T17:59:16.700Z,26.27
2022-11-14T18:01:44.901Z,27.88
2022-11-14T18:04:13.492Z,26.92
2022-11-14T18:06:42.993Z,28.40
2022-11-14T18:09:14.468Z,28.50
2022-11-14T18:11:43.255Z,28.95
2022-11-14T18:14:12.320Z,27.17
2022-11-14T18:17:05.876Z,27.20
2022-11-14T18:19:29.416Z,26.52
2022-11-14T18:21:59.336Z,29.17
2022-11-14T18:24:27.410Z,28.08
2022-11-14T18:26:55.964Z,28.13
2022-11-14T18:29:24.119Z,27.38
2022-11-14T18:31:52.482Z,30.25
2022-11-14T18:34:24.520Z,28.20
2022-11-14T18:36:53.101Z,29.27
2022-11-14T18:39:22.799Z,29.67
2022-11-14T18:41:50.992Z,29.25
2022-11-14T18:44:21.460Z,31.55
2022-11-14T18:46:49.884Z,30.58
2022-11-14T18:49:18.554Z,31.15
2022-11-14T18:51:47.022Z,31.13
2022-11-14T18:54:18.019Z,31.73
2022-11-14T18:56:47.853Z,32.53
2022-11-14T18:59:16.358Z,33.38
2022-11-14T19:01:44.969Z,32.30
2022-11-14T19:04:14.444Z,34.78
2022-11-14T19:06:42.928Z,34.45
2022-11-14T19:09:15.186Z,34.60
2022-11-14T19:12:01.346Z,34.03
2022-11-14T19:14:31.140Z,31.17
2022-11-14T19:17:00.059Z,32.90
2022-11-14T19:19:28.645Z,33.20
2022-11-14T19:21:59.044Z,33.95
2022-11-14T19:24:27.519Z,35.70
2022-11-14T19:26:57.471Z,33.95
2022-11-14T19:29:25.876Z,35.25
2022-11-14T19:31:55.745Z,35.15
2022-11-14T19:34:24.179Z,36.78
2022-11-14T19:37:00.043Z,34.35
2022-11-14T19:39:29.497Z,35.28
2022-11-14T19:41:58.536Z,35.47
2022-11-14T19:44:27.079Z,34.95
2022-11-14T19:46:56.581Z,34.75
2022-11-14T19:49:24.948Z,32.50
2022-11-14T19:51:53.604Z,41.30
2022-11-14T19:54:22.651Z,41.97
2022-11-14T19:56:52.360Z,35.22
2022-11-14T19:59:24.439Z,32.05
2022-11-14T20:01:55.870Z,32.78
2022-11-14T20:04:26.606Z,30.13
2022-11-14T20:06:58.169Z,32.55
2022-11-14T20:09:29.460Z,32.00
2022-11-14T20:11:58.064Z,33.20
2022-11-14T20:14:26.605Z,31.05
2022-11-14T20:16:54.686Z,29.33
2022-11-14T20:19:23.117Z,27.58
2022-11-14T20:21:56.251Z,32.10
2022-11-14T20:24:26.976Z,33.08
2022-11-14T20:26:57.896Z,33.10
2022-11-14T20:29:26.170Z,33.75
2022-11-14T20:31:54.253Z,34.90
2022-11-14T20:34:23.484Z,30.90
2022-11-14T20:39:42.137Z,33.67
2022-11-14T20:42:10.612Z,32.10
2022-11-14T20:44:40.189Z,32.10
2022-11-14T20:47:10.964Z,33.72
2022-11-14T20:49:42.977Z,32.92
2022-11-14T20:52:15.705Z,32.90
2022-11-14T20:57:13.719Z,30.60
2022-11-14T20:59:41.843Z,32.35
2022-11-14T21:02:12.616Z,34.55
2022-11-14T21:04:40.740Z,34.50
2022-11-14T21:07:10.524Z,35.05
2022-11-14T21:09:38.695Z,36.30
2022-11-14T21:12:08.409Z,35.25
2022-11-14T21:14:36.538Z,36.90
2022-11-14T21:17:04.846Z,35.33
2022-11-14T21:19:33.297Z,34.45
2022-11-14T21:22:04.424Z,37.47
2022-11-14T21:24:35.658Z,39.38
2022-11-14T21:27:13.146Z,38.28
2022-11-14T21:29:41.721Z,37.53
2022-11-14T21:32:09.865Z,39.20
2022-11-14T21:34:37.929Z,41.53
2022-11-14T21:37:05.933Z,42.17
2022-11-14T21:39:36.329Z,41.92
2022-11-14T21:42:07.347Z,40.92
2022-11-14T21:44:36.803Z,41.88
2022-11-14T21:47:04.908Z,40.20
2022-11-14T21:49:33.109Z,41.13
2022-11-14T21:52:01.197Z,42.95
2022-11-14T21:54:29.513Z,39.53
2022-11-14T21:56:57.483Z,37.70
2022-11-14T21:59:27.695Z,36.67
2022-11-14T22:02:14.570Z,37.90
2022-11-14T22:04:42.597Z,36.60
2022-11-14T22:07:10.672Z,37.28
2022-11-14T22:09:44.940Z,37.42
2022-11-14T22:12:13.468Z,36.83
2022-11-14T22:14:42.939Z,38.38
2022-11-14T22:17:12.493Z,36.60
2022-11-14T22:19:42.384Z,35.58
2022-11-14T22:22:10.790Z,35.28
2022-11-14T22:24:39.053Z,31.70
2022-11-14T22:27:07.573Z,33.72
2022-11-14T22:29:36.010Z,31.75
2022-11-14T22:32:04.653Z,32.55
2022-11-14T22:34:34.202Z,31.80
2022-11-14T22:37:04.713Z,28.55
2022-11-14T22:39:32.794Z,30.35
2022-11-14T22:42:00.788Z,30.27
2022-11-14T22:44:28.763Z,29.70
2022-11-14T22:46:56.790Z,28.80
2022-11-14T22:49:24.758Z,27.23
2022-11-14T22:51:54.102Z,23.52
2022-11-14T22:54:22.121Z,25.40
2022-11-14T22:56:50.086Z,26.02
2022-11-14T22:59:18.059Z,28.20
2022-11-14T23:01:46.115Z,27.05
2022-11-14T23:04:14.412Z,30.90
2022-11-14T23:06:42.684Z,29.80
2022-11-14T23:09:12.361Z,28.85
2022-11-14T23:11:40.797Z,28.15
2022-11-14T23:14:09.294Z,27.70
2022-11-14T23:16:37.592Z,26.88
2022-11-14T23:19:06.533Z,26.80
2022-11-14T23:21:36.966Z,25.42
2022-11-14T23:24:08.563Z,25.48
2022-11-14T23:26:38.287Z,24.90
2022-11-14T23:29:06.506Z,24.67
2022-11-14T23:31:34.764Z,30.17
2022-11-14T23:34:02.940Z,31.30
2022-11-14T23:36:31.260Z,32.08
2022-11-14T23:38:59.623Z,33.13
2022-11-14T23:41:27.901Z,33.47
2022-11-14T23:43:57.627Z,31.80
2022-11-14T23:46:26.873Z,29.33
2022-11-14T23:48:55.080Z,28.30
2022-11-14T23:51:23.365Z,26.45
2022-11-14T23:53:52.154Z,25.55
2022-11-14T23:56:20.474Z,25.27
2022-11-14T23:58:48.909Z,25.55
